Aviation Digital Data Service (ADDS)

Output produced by METARs form (0305 UTC 22 April 2019)
found at http://www.aviationweather.gov/metar/data/
 
METAR text: KCLT 220252Z 33004KT 10SM FEW060 12/06 A3015 RMK AO2 SLP207 T01170061 51022
Conditions at: KCLT (CHARLOTTE , NC, US) observed 0252 UTC 22 April 2019
Temperature: 11.7°C (53°F)
Dewpoint: 6.1°C (43°F) [RH = 68%]
Pressure (altimeter): 30.15 inches Hg (1021.1 mb)
[Sea-level pressure: 1020.7 mb]
Winds: from the NNW (330 degrees) at 5 MPH (4 knots; 2.1 m/s)
Visibility: 10 or more miles (16+ km)
Ceiling: at least 12,000 feet AGL
Clouds: few clouds at 6000 feet AGL
Weather: no significant weather observed at this time

METAR text: KCLT 220152Z COR 00000KT 10SM SCT060 13/07 A3014 RMK AO2 SLP203 T01280072
Conditions at: KCLT (CHARLOTTE , NC, US) observed 0152 UTC 22 April 2019
Temperature: 12.8°C (55°F)
Dewpoint: 7.2°C (45°F) [RH = 69%]
Pressure (altimeter): 30.14 inches Hg (1020.7 mb)
[Sea-level pressure: 1020.3 mb]
Winds: calm
Visibility: 10 or more miles (16+ km)
Ceiling: at least 12,000 feet AGL
Clouds: scattered clouds at 6000 feet AGL
Weather: no significant weather observed at this time

METAR text: KCLT 220052Z 20003KT 10SM FEW060 14/06 A3011 RMK AO2 SLP194 T01390061
Conditions at: KCLT (CHARLOTTE , NC, US) observed 0052 UTC 22 April 2019
Temperature: 13.9°C (57°F)
Dewpoint: 6.1°C (43°F) [RH = 59%]
Pressure (altimeter): 30.11 inches Hg (1019.7 mb)
[Sea-level pressure: 1019.4 mb]
Winds: from the SSW (200 degrees) at 3 MPH (3 knots; 1.5 m/s)
Visibility: 10 or more miles (16+ km)
Ceiling: at least 12,000 feet AGL
Clouds: few clouds at 6000 feet AGL
Weather: no significant weather observed at this time

METAR text: KCLT 212352Z 00000KT 10SM FEW050 16/06 A3008 RMK AO2 SLP185 T01610061 10194 20156 53007
Conditions at: KCLT (CHARLOTTE , NC, US) observed 2352 UTC 21 April 2019
Temperature: 16.1°C (61°F)
Dewpoint: 6.1°C (43°F) [RH = 51%]
Pressure (altimeter): 30.08 inches Hg (1018.7 mb)
[Sea-level pressure: 1018.5 mb]
Winds: calm
Visibility: 10 or more miles (16+ km)
Ceiling: at least 12,000 feet AGL
Clouds: few clouds at 5000 feet AGL
Weather: no significant weather observed at this time

METAR text: KCLT 212252Z 28003KT 10SM FEW050 18/05 A3007 RMK AO2 SLP182 T01830050
Conditions at: KCLT (CHARLOTTE , NC, US) observed 2252 UTC 21 April 2019
Temperature: 18.3°C (65°F)
Dewpoint: 5.0°C (41°F) [RH = 41%]
Pressure (altimeter): 30.07 inches Hg (1018.4 mb)
[Sea-level pressure: 1018.2 mb]
Winds: from the W (280 degrees) at 3 MPH (3 knots; 1.5 m/s)
Visibility: 10 or more miles (16+ km)
Ceiling: at least 12,000 feet AGL
Clouds: few clouds at 5000 feet AGL
Weather: no significant weather observed at this time

METAR text: KCLT 212152Z 32004KT 10SM FEW050 19/05 A3006 RMK AO2 SLP179 T01890050
Conditions at: KCLT (CHARLOTTE , NC, US) observed 2152 UTC 21 April 2019
Temperature: 18.9°C (66°F)
Dewpoint: 5.0°C (41°F) [RH = 40%]
Pressure (altimeter): 30.06 inches Hg (1018.0 mb)
[Sea-level pressure: 1017.9 mb]
Winds: from the NW (320 degrees) at 5 MPH (4 knots; 2.1 m/s)
Visibility: 10 or more miles (16+ km)
Ceiling: at least 12,000 feet AGL
Clouds: few clouds at 5000 feet AGL
Weather: no significant weather observed at this time

METAR text: KCLT 212052Z 27005KT 10SM SCT050 18/06 A3006 RMK AO2 SLP177 T01830056 58005
Conditions at: KCLT (CHARLOTTE , NC, US) observed 2052 UTC 21 April 2019
Temperature: 18.3°C (65°F)
Dewpoint: 5.6°C (42°F) [RH = 43%]
Pressure (altimeter): 30.06 inches Hg (1018.0 mb)
[Sea-level pressure: 1017.7 mb]
Winds: from the W (270 degrees) at 6 MPH (5 knots; 2.6 m/s)
Visibility: 10 or more miles (16+ km)
Ceiling: at least 12,000 feet AGL
Clouds: scattered clouds at 5000 feet AGL
Weather: no significant weather observed at this time

METAR text: KCLT 211952Z 36010KT 10SM SCT050 17/05 A3007 RMK AO2 SLP181 T01670050
Conditions at: KCLT (CHARLOTTE , NC, US) observed 1952 UTC 21 April 2019
Temperature: 16.7°C (62°F)
Dewpoint: 5.0°C (41°F) [RH = 46%]
Pressure (altimeter): 30.07 inches Hg (1018.4 mb)
[Sea-level pressure: 1018.1 mb]
Winds: from the N (360 degrees) at 12 MPH (10 knots; 5.1 m/s)
Visibility: 10 or more miles (16+ km)
Ceiling: at least 12,000 feet AGL
Clouds: scattered clouds at 5000 feet AGL
Weather: no significant weather observed at this time

METAR text: KCLT 211852Z 00000KT 10SM SCT050 16/04 A3007 RMK AO2 SLP182 T01560039
Conditions at: KCLT (CHARLOTTE , NC, US) observed 1852 UTC 21 April 2019
Temperature: 15.6°C (60°F)
Dewpoint: 3.9°C (39°F) [RH = 46%]
Pressure (altimeter): 30.07 inches Hg (1018.4 mb)
[Sea-level pressure: 1018.2 mb]
Winds: calm
Visibility: 10 or more miles (16+ km)
Ceiling: at least 12,000 feet AGL
Clouds: scattered clouds at 5000 feet AGL
Weather: no significant weather observed at this time

METAR text: KCLT 211752Z VRB06KT 10SM BKN050 17/05 A3008 RMK AO2 SLP183 T01670050 10167 20078 51007
Conditions at: KCLT (CHARLOTTE , NC, US) observed 1752 UTC 21 April 2019
Temperature: 16.7°C (62°F)
Dewpoint: 5.0°C (41°F) [RH = 46%]
Pressure (altimeter): 30.08 inches Hg (1018.7 mb)
[Sea-level pressure: 1018.3 mb]
Winds: variable direction winds at 7 MPH (6 knots; 3.1 m/s)
Visibility: 10 or more miles (16+ km)
Ceiling: 5000 feet AGL
Clouds: broken clouds at 5000 feet AGL
Weather: no significant weather observed at this time

METAR text: KCLT 211652Z 33008KT 10SM BKN047 BKN055 15/04 A3007 RMK AO2 SLP182 T01500044
Conditions at: KCLT (CHARLOTTE , NC, US) observed 1652 UTC 21 April 2019
Temperature: 15.0°C (59°F)
Dewpoint: 4.4°C (40°F) [RH = 49%]
Pressure (altimeter): 30.07 inches Hg (1018.4 mb)
[Sea-level pressure: 1018.2 mb]
Winds: from the NNW (330 degrees) at 9 MPH (8 knots; 4.1 m/s)
Visibility: 10 or more miles (16+ km)
Ceiling: 4700 feet AGL
Clouds: broken clouds at 4700 feet AGL
broken clouds at 5500 feet AGL
Weather: no significant weather observed at this time

METAR text: KCLT 211552Z 30009KT 10SM BKN043 BKN250 14/04 A3007 RMK AO2 SLP182 T01440039
Conditions at: KCLT (CHARLOTTE , NC, US) observed 1552 UTC 21 April 2019
Temperature: 14.4°C (58°F)
Dewpoint: 3.9°C (39°F) [RH = 49%]
Pressure (altimeter): 30.07 inches Hg (1018.4 mb)
[Sea-level pressure: 1018.2 mb]
Winds: from the WNW (300 degrees) at 10 MPH (9 knots; 4.6 m/s)
Visibility: 10 or more miles (16+ km)
Ceiling: 4300 feet AGL
Clouds: broken clouds at 4300 feet AGL
broken clouds at 25000 feet AGL
Weather: no significant weather observed at this time

METAR text: KCLT 211452Z 30008KT 10SM FEW034 SCT120 SCT200 14/04 A3005 RMK AO2 SLP175 T01440039 51018
Conditions at: KCLT (CHARLOTTE , NC, US) observed 1452 UTC 21 April 2019
Temperature: 14.4°C (58°F)
Dewpoint: 3.9°C (39°F) [RH = 49%]
Pressure (altimeter): 30.05 inches Hg (1017.7 mb)
[Sea-level pressure: 1017.5 mb]
Winds: from the WNW (300 degrees) at 9 MPH (8 knots; 4.1 m/s)
Visibility: 10 or more miles (16+ km)
Ceiling: at least 12,000 feet AGL
Clouds: few clouds at 3400 feet AGL
scattered clouds at 12000 feet AGL
scattered clouds at 20000 feet AGL
Weather: no significant weather observed at this time

METAR text: KCLT 211352Z 35009KT 10SM FEW020 FEW065 FEW120 SCT200 13/06 A3004 RMK AO2 SLP172 T01280056
Conditions at: KCLT (CHARLOTTE , NC, US) observed 1352 UTC 21 April 2019
Temperature: 12.8°C (55°F)
Dewpoint: 5.6°C (42°F) [RH = 62%]
Pressure (altimeter): 30.04 inches Hg (1017.4 mb)
[Sea-level pressure: 1017.2 mb]
Winds: from the N (350 degrees) at 10 MPH (9 knots; 4.6 m/s)
Visibility: 10 or more miles (16+ km)
Ceiling: at least 12,000 feet AGL
Clouds: few clouds at 2000 feet AGL
few clouds at 6500 feet AGL
few clouds at 12000 feet AGL
scattered clouds at 20000 feet AGL
Weather: no significant weather observed at this time

METAR text: KCLT 211252Z 32003KT 10SM FEW075 SCT220 11/06 A3002 RMK AO2 SLP164 T01060061
Conditions at: KCLT (CHARLOTTE , NC, US) observed 1252 UTC 21 April 2019
Temperature: 10.6°C (51°F)
Dewpoint: 6.1°C (43°F) [RH = 74%]
Pressure (altimeter): 30.02 inches Hg (1016.7 mb)
[Sea-level pressure: 1016.4 mb]
Winds: from the NW (320 degrees) at 3 MPH (3 knots; 1.5 m/s)
Visibility: 10 or more miles (16+ km)
Ceiling: at least 12,000 feet AGL
Clouds: few clouds at 7500 feet AGL
scattered clouds at 22000 feet AGL
Weather: no significant weather observed at this time

METAR text: KCLT 211152Z 33003KT 10SM FEW075 SCT220 07/06 A3000 RMK AO2 SLP159 70003 T00720061 10078 20044 53022
Conditions at: KCLT (CHARLOTTE , NC, US) observed 1152 UTC 21 April 2019
Temperature: 7.2°C (45°F)
Dewpoint: 6.1°C (43°F) [RH = 93%]
Pressure (altimeter): 30.00 inches Hg (1016.0 mb)
[Sea-level pressure: 1015.9 mb]
Winds: from the NNW (330 degrees) at 3 MPH (3 knots; 1.5 m/s)
Visibility: 10 or more miles (16+ km)
Ceiling: at least 12,000 feet AGL
Clouds: few clouds at 7500 feet AGL
scattered clouds at 22000 feet AGL
Weather: no significant weather observed at this time

METAR text: KCLT 211052Z 30003KT 6SM BR SCT250 05/04 A2998 RMK AO2 SLP150 T00500039
Conditions at: KCLT (CHARLOTTE , NC, US) observed 1052 UTC 21 April 2019
Temperature: 5.0°C (41°F)
Dewpoint: 3.9°C (39°F) [RH = 93%]
Pressure (altimeter): 29.98 inches Hg (1015.3 mb)
[Sea-level pressure: 1015.0 mb]
Winds: from the WNW (300 degrees) at 3 MPH (3 knots; 1.5 m/s)
Visibility: 6 miles (10 km)
Ceiling: at least 12,000 feet AGL
Clouds: scattered clouds at 25000 feet AGL
Weather: BR  (mist)

METAR text: KCLT 210952Z 32004KT 9SM SCT250 06/05 A2995 RMK AO2 SLP143 T00560050
Conditions at: KCLT (CHARLOTTE , NC, US) observed 0952 UTC 21 April 2019
Temperature: 5.6°C (42°F)
Dewpoint: 5.0°C (41°F) [RH = 96%]
Pressure (altimeter): 29.95 inches Hg (1014.3 mb)
[Sea-level pressure: 1014.3 mb]
Winds: from the NW (320 degrees) at 5 MPH (4 knots; 2.1 m/s)
Visibility: 9 miles (14 km)
Ceiling: at least 12,000 feet AGL
Clouds: scattered clouds at 25000 feet AGL
Weather: no significant weather observed at this time

METAR text: KCLT 210852Z 00000KT 8SM FEW007 SCT250 06/04 A2994 RMK AO2 SLP136 T00610044 53009
Conditions at: KCLT (CHARLOTTE , NC, US) observed 0852 UTC 21 April 2019
Temperature: 6.1°C (43°F)
Dewpoint: 4.4°C (40°F) [RH = 89%]
Pressure (altimeter): 29.94 inches Hg (1014.0 mb)
[Sea-level pressure: 1013.6 mb]
Winds: calm
Visibility: 8 miles (13 km)
Ceiling: at least 12,000 feet AGL
Clouds: few clouds at 700 feet AGL
scattered clouds at 25000 feet AGL
Weather: no significant weather observed at this time

METAR text: KCLT 210752Z 27003KT 10SM FEW007 FEW120 FEW250 06/05 A2993 RMK AO2 SLP134 T00610050
Conditions at: KCLT (CHARLOTTE , NC, US) observed 0752 UTC 21 April 2019
Temperature: 6.1°C (43°F)
Dewpoint: 5.0°C (41°F) [RH = 93%]
Pressure (altimeter): 29.93 inches Hg (1013.6 mb)
[Sea-level pressure: 1013.4 mb]
Winds: from the W (270 degrees) at 3 MPH (3 knots; 1.5 m/s)
Visibility: 10 or more miles (16+ km)
Ceiling: at least 12,000 feet AGL
Clouds: few clouds at 700 feet AGL
few clouds at 12000 feet AGL
few clouds at 25000 feet AGL
Weather: no significant weather observed at this time

METAR text: KCLT 210652Z 24003KT 10SM FEW007 SCT250 07/05 A2991 RMK AO2 SLP127 T00670050
Conditions at: KCLT (CHARLOTTE , NC, US) observed 0652 UTC 21 April 2019
Temperature: 6.7°C (44°F)
Dewpoint: 5.0°C (41°F) [RH = 89%]
Pressure (altimeter): 29.91 inches Hg (1013.0 mb)
[Sea-level pressure: 1012.7 mb]
Winds: from the WSW (240 degrees) at 3 MPH (3 knots; 1.5 m/s)
Visibility: 10 or more miles (16+ km)
Ceiling: at least 12,000 feet AGL
Clouds: few clouds at 700 feet AGL
scattered clouds at 25000 feet AGL
Weather: no significant weather observed at this time

METAR text: KCLT 210552Z 24005KT 10SM SCT050 08/06 A2991 RMK AO2 SLP127 T00780056 10106 20072 51010
Conditions at: KCLT (CHARLOTTE , NC, US) observed 0552 UTC 21 April 2019
Temperature: 7.8°C (46°F)
Dewpoint: 5.6°C (42°F) [RH = 86%]
Pressure (altimeter): 29.91 inches Hg (1013.0 mb)
[Sea-level pressure: 1012.7 mb]
Winds: from the WSW (240 degrees) at 6 MPH (5 knots; 2.6 m/s)
Visibility: 10 or more miles (16+ km)
Ceiling: at least 12,000 feet AGL
Clouds: scattered clouds at 5000 feet AGL
Weather: no significant weather observed at this time

METAR text: KCLT 210521Z 22006KT 10SM FEW009 BKN050 08/06 A2991 RMK AO2 T00780061
Conditions at: KCLT (CHARLOTTE , NC, US) observed 0521 UTC 21 April 2019
Temperature: 7.8°C (46°F)
Dewpoint: 6.1°C (43°F) [RH = 89%]
Pressure (altimeter): 29.91 inches Hg (1013.0 mb)
Winds: from the SW (220 degrees) at 7 MPH (6 knots; 3.1 m/s)
Visibility: 10 or more miles (16+ km)
Ceiling: 5000 feet AGL
Clouds: few clouds at 900 feet AGL
broken clouds at 5000 feet AGL
Weather: no significant weather observed at this time

METAR text: KCLT 210452Z 22008KT 10SM FEW032 BKN050 08/06 A2991 RMK AO2 SLP126 T00830061 401390083
Conditions at: KCLT (CHARLOTTE , NC, US) observed 0452 UTC 21 April 2019
Temperature: 8.3°C (47°F)
Dewpoint: 6.1°C (43°F) [RH = 86%]
Pressure (altimeter): 29.91 inches Hg (1013.0 mb)
[Sea-level pressure: 1012.6 mb]
Winds: from the SW (220 degrees) at 9 MPH (8 knots; 4.1 m/s)
Visibility: 10 or more miles (16+ km)
Ceiling: 5000 feet AGL
Clouds: few clouds at 3200 feet AGL
broken clouds at 5000 feet AGL
Weather: no significant weather observed at this time

METAR text: KCLT 210352Z 22009KT 10SM SCT034 OVC048 09/06 A2990 RMK AO2 SLP122 T00940061
Conditions at: KCLT (CHARLOTTE , NC, US) observed 0352 UTC 21 April 2019
Temperature: 9.4°C (49°F)
Dewpoint: 6.1°C (43°F) [RH = 80%]
Pressure (altimeter): 29.90 inches Hg (1012.6 mb)
[Sea-level pressure: 1012.2 mb]
Winds: from the SW (220 degrees) at 10 MPH (9 knots; 4.6 m/s)
Visibility: 10 or more miles (16+ km)
Ceiling: 4800 feet AGL
Clouds: scattered clouds at 3400 feet AGL
overcast cloud deck at 4800 feet AGL
Weather: no significant weather observed at this time

METAR text: KCLT 210252Z 19006KT 10SM OVC041 10/07 A2988 RMK AO2 SLP116 T01000067 51022
Conditions at: KCLT (CHARLOTTE , NC, US) observed 0252 UTC 21 April 2019
Temperature: 10.0°C (50°F)
Dewpoint: 6.7°C (44°F) [RH = 80%]
Pressure (altimeter): 29.88 inches Hg (1011.9 mb)
[Sea-level pressure: 1011.6 mb]
Winds: from the S (190 degrees) at 7 MPH (6 knots; 3.1 m/s)
Visibility: 10 or more miles (16+ km)
Ceiling: 4100 feet AGL
Clouds: overcast cloud deck at 4100 feet AGL
Weather: no significant weather observed at this time

METAR text: KCLT 210152Z 20006KT 10SM BKN038 BKN044 10/07 A2986 RMK AO2 SLP110 T01000067
Conditions at: KCLT (CHARLOTTE , NC, US) observed 0152 UTC 21 April 2019
Temperature: 10.0°C (50°F)
Dewpoint: 6.7°C (44°F) [RH = 80%]
Pressure (altimeter): 29.86 inches Hg (1011.3 mb)
[Sea-level pressure: 1011.0 mb]
Winds: from the SSW (200 degrees) at 7 MPH (6 knots; 3.1 m/s)
Visibility: 10 or more miles (16+ km)
Ceiling: 3800 feet AGL
Clouds: broken clouds at 3800 feet AGL
broken clouds at 4400 feet AGL
Weather: no significant weather observed at this time

METAR text: KCLT 210052Z 20007KT 10SM FEW030 FEW045 09/07 A2983 RMK AO2 SLP100 T00940067
Conditions at: KCLT (CHARLOTTE , NC, US) observed 0052 UTC 21 April 2019
Temperature: 9.4°C (49°F)
Dewpoint: 6.7°C (44°F) [RH = 83%]
Pressure (altimeter): 29.83 inches Hg (1010.2 mb)
[Sea-level pressure: 1010.0 mb]
Winds: from the SSW (200 degrees) at 8 MPH (7 knots; 3.6 m/s)
Visibility: 10 or more miles (16+ km)
Ceiling: at least 12,000 feet AGL
Clouds: few clouds at 3000 feet AGL
few clouds at 4500 feet AGL
Weather: no significant weather observed at this time

METAR text: KCLT 202352Z 20007KT 10SM SCT019 BKN036 OVC075 11/07 A2981 RMK AO2 SLP093 60003 T01060067 10133 20100 51019
Conditions at: KCLT (CHARLOTTE , NC, US) observed 2352 UTC 20 April 2019
Temperature: 10.6°C (51°F)
Dewpoint: 6.7°C (44°F) [RH = 77%]
Pressure (altimeter): 29.81 inches Hg (1009.6 mb)
[Sea-level pressure: 1009.3 mb]
Winds: from the SSW (200 degrees) at 8 MPH (7 knots; 3.6 m/s)
Visibility: 10 or more miles (16+ km)
Ceiling: 3600 feet AGL
Clouds: scattered clouds at 1900 feet AGL
broken clouds at 3600 feet AGL
overcast cloud deck at 7500 feet AGL
Weather: no significant weather observed at this time

METAR text: KCLT 202252Z 21011G16KT 10SM FEW025 BKN065 BKN110 11/06 A2979 RMK AO2 SLP087 T01110061
Conditions at: KCLT (CHARLOTTE , NC, US) observed 2252 UTC 20 April 2019
Temperature: 11.1°C (52°F)
Dewpoint: 6.1°C (43°F) [RH = 71%]
Pressure (altimeter): 29.79 inches Hg (1008.9 mb)
[Sea-level pressure: 1008.7 mb]
Winds: from the SSW (210 degrees) at 13 MPH (11 knots; 5.7 m/s)
gusting to 18 MPH (16 knots; 8.2 m/s)
Visibility: 10 or more miles (16+ km)
Ceiling: 6500 feet AGL
Clouds: few clouds at 2500 feet AGL
broken clouds at 6500 feet AGL
broken clouds at 11000 feet AGL
Weather: no significant weather observed at this time

METAR text: KCLT 202152Z 22012KT 10SM FEW029 SCT039 BKN055 12/06 A2977 RMK AO2 RAB17E29 SLP080 P0000 T01170061
Conditions at: KCLT (CHARLOTTE , NC, US) observed 2152 UTC 20 April 2019
Temperature: 11.7°C (53°F)
Dewpoint: 6.1°C (43°F) [RH = 68%]
Pressure (altimeter): 29.77 inches Hg (1008.2 mb)
[Sea-level pressure: 1008.0 mb]
Winds: from the SW (220 degrees) at 14 MPH (12 knots; 6.2 m/s)
Visibility: 10 or more miles (16+ km)
Ceiling: 5500 feet AGL
Clouds: few clouds at 2900 feet AGL
scattered clouds at 3900 feet AGL
broken clouds at 5500 feet AGL
Weather: no significant weather observed at this time

METAR text: KCLT 202052Z 23016G23KT 10SM BKN036 BKN050 OVC085 13/06 A2975 RMK AO2 SLP072 60003 T01280056 53003
Conditions at: KCLT (CHARLOTTE , NC, US) observed 2052 UTC 20 April 2019
Temperature: 12.8°C (55°F)
Dewpoint: 5.6°C (42°F) [RH = 62%]
Pressure (altimeter): 29.75 inches Hg (1007.5 mb)
[Sea-level pressure: 1007.2 mb]
Winds: from the SW (230 degrees) at 18 MPH (16 knots; 8.2 m/s)
gusting to 26 MPH (23 knots; 11.8 m/s)
Visibility: 10 or more miles (16+ km)
Ceiling: 3600 feet AGL
Clouds: broken clouds at 3600 feet AGL
broken clouds at 5000 feet AGL
overcast cloud deck at 8500 feet AGL
Weather: no significant weather observed at this time

METAR text: KCLT 201952Z 21012KT 10SM SCT025 SCT042 BKN085 11/07 A2975 RMK AO2 RAB01E44 SLP071 P0003 T01110072
Conditions at: KCLT (CHARLOTTE , NC, US) observed 1952 UTC 20 April 2019
Temperature: 11.1°C (52°F)
Dewpoint: 7.2°C (45°F) [RH = 77%]
Pressure (altimeter): 29.75 inches Hg (1007.5 mb)
[Sea-level pressure: 1007.1 mb]
Winds: from the SSW (210 degrees) at 14 MPH (12 knots; 6.2 m/s)
Visibility: 10 or more miles (16+ km)
Ceiling: 8500 feet AGL
Clouds: scattered clouds at 2500 feet AGL
scattered clouds at 4200 feet AGL
broken clouds at 8500 feet AGL
Weather: no significant weather observed at this time

METAR text: KCLT 201852Z 16015G19KT 10SM SCT035 BKN043 OVC090 12/06 A2973 RMK AO2 RAB22E36 SLP067 P0000 T01170061
Conditions at: KCLT (CHARLOTTE , NC, US) observed 1852 UTC 20 April 2019
Temperature: 11.7°C (53°F)
Dewpoint: 6.1°C (43°F) [RH = 68%]
Pressure (altimeter): 29.73 inches Hg (1006.9 mb)
[Sea-level pressure: 1006.7 mb]
Winds: from the SSE (160 degrees) at 17 MPH (15 knots; 7.7 m/s)
gusting to 22 MPH (19 knots; 9.8 m/s)
Visibility: 10 or more miles (16+ km)
Ceiling: 4300 feet AGL
Clouds: scattered clouds at 3500 feet AGL
broken clouds at 4300 feet AGL
overcast cloud deck at 9000 feet AGL
Weather: no significant weather observed at this time

METAR text: KCLT 201752Z 21012G23KT 10SM SCT034 BKN060 OVC080 13/05 A2974 RMK AO2 RAE17 SLP068 P0000 60000 T01280050 10133 20094 50003
Conditions at: KCLT (CHARLOTTE , NC, US) observed 1752 UTC 20 April 2019
Temperature: 12.8°C (55°F)
Dewpoint: 5.0°C (41°F) [RH = 59%]
Pressure (altimeter): 29.74 inches Hg (1007.2 mb)
[Sea-level pressure: 1006.8 mb]
Winds: from the SSW (210 degrees) at 14 MPH (12 knots; 6.2 m/s)
gusting to 26 MPH (23 knots; 11.8 m/s)
Visibility: 10 or more miles (16+ km)
Ceiling: 6000 feet AGL
Clouds: scattered clouds at 3400 feet AGL
broken clouds at 6000 feet AGL
overcast cloud deck at 8000 feet AGL
Weather: no significant weather observed at this time

METAR text: KCLT 201652Z 21014G18KT 10SM -RA BKN033 BKN041 BKN060 11/04 A2974 RMK AO2 RAB17 SLP069 P0000 T01110044
Conditions at: KCLT (CHARLOTTE , NC, US) observed 1652 UTC 20 April 2019
Temperature: 11.1°C (52°F)
Dewpoint: 4.4°C (40°F) [RH = 63%]
Pressure (altimeter): 29.74 inches Hg (1007.2 mb)
[Sea-level pressure: 1006.9 mb]
Winds: from the SSW (210 degrees) at 16 MPH (14 knots; 7.2 m/s)
gusting to 21 MPH (18 knots; 9.3 m/s)
Visibility: 10 or more miles (16+ km)
Ceiling: 3300 feet AGL
Clouds: broken clouds at 3300 feet AGL
broken clouds at 4100 feet AGL
broken clouds at 6000 feet AGL
Weather: -RA  (light rain)

METAR text: KCLT 201552Z 19013G19KT 10SM BKN030 BKN036 OVC050 11/04 A2975 RMK AO2 RAE1457 SLP069 P0000 T01110044
Conditions at: KCLT (CHARLOTTE , NC, US) observed 1552 UTC 20 April 2019
Temperature: 11.1°C (52°F)
Dewpoint: 4.4°C (40°F) [RH = 63%]
Pressure (altimeter): 29.75 inches Hg (1007.5 mb)
[Sea-level pressure: 1006.9 mb]
Winds: from the S (190 degrees) at 15 MPH (13 knots; 6.7 m/s)
gusting to 22 MPH (19 knots; 9.8 m/s)
Visibility: 10 or more miles (16+ km)
Ceiling: 3000 feet AGL
Clouds: broken clouds at 3000 feet AGL
broken clouds at 3600 feet AGL
overcast cloud deck at 5000 feet AGL
Weather: no significant weather observed at this time

METAR text: KCLT 201516Z 20010G20KT 10SM SCT026 BKN032 BKN055 11/05 A2973 RMK AO2 RAE1457 P0000 T01060050
Conditions at: KCLT (CHARLOTTE , NC, US) observed 1516 UTC 20 April 2019
Temperature: 10.6°C (51°F)
Dewpoint: 5.0°C (41°F) [RH = 68%]
Pressure (altimeter): 29.73 inches Hg (1006.9 mb)
Winds: from the SSW (200 degrees) at 12 MPH (10 knots; 5.1 m/s)
gusting to 23 MPH (20 knots; 10.3 m/s)
Visibility: 10 or more miles (16+ km)
Ceiling: 3200 feet AGL
Clouds: scattered clouds at 2600 feet AGL
broken clouds at 3200 feet AGL
broken clouds at 5500 feet AGL
Weather: no significant weather observed at this time

Forecast for: KCLT (CHARLOTTE , NC, US)
Text: KCLT 220205Z 2202/2306 34005KT P6SM FEW250
Forecast period: 0200 UTC 22 April 2019 to 0000 UTC 23 April 2019
Forecast type: FROM: standard forecast or significant change
Winds: from the NNW (340 degrees) at 6 MPH (5 knots; 2.6 m/s)
Visibility: 6 or more miles 10+ km)
Ceiling: at least 12,000 feet AGL
Clouds: few clouds at 25000 feet AGL
Weather: no significant weather forecast for this period
Text: FM230000 17003KT P6SM SKC
Forecast period: 0000 to 0600 UTC 23 April 2019
Forecast type: FROM: standard forecast or significant change
Winds: from the S (170 degrees) at 3 MPH (3 knots; 1.5 m/s)
Visibility: 6 or more miles 10+ km)
Clouds: clear skies
Weather: no significant weather forecast for this period